Time;durP1;ratioP1;P1;durP2;ratioP2;P2;SDS_P1;SDS_P2;PMS_P1;PMS_P2;Temp;Humidity;BMP_temperature;BMP_pressure;BME280_temperature;BME280_humidity;BME280_pressure;Samples;Min_cycle;Max_cycle;Signal;HPM_P1;HPM_P2
2023/06/03 00:00:51;;;;;;;;;;;11.80;99.90;;;;;;5045580;28;20019;-85
2023/06/03 00:03:17;;;;;;;;;;;11.80;99.90;;;;;;5019297;28;20388;-88
2023/06/03 00:05:43;;;;;;;;;;;11.70;99.90;;;;;;5035688;28;20425;-85
2023/06/03 00:08:08;;;;;;;;;;;11.70;99.90;;;;;;5016740;28;19960;-86
2023/06/03 00:10:34;;;;;;;;;;;11.60;99.90;;;;;;5028113;28;19925;-86
2023/06/03 00:13:00;;;;;;;;;;;11.60;99.90;;;;;;5020312;28;20110;-85
2023/06/03 00:15:25;;;;;;;;;;;11.50;99.90;;;;;;5020032;28;19992;-85
2023/06/03 00:17:51;;;;;;;;;;;11.50;99.90;;;;;;4997088;28;19926;-85
2023/06/03 00:20:17;;;;;;;;;;;11.40;99.90;;;;;;5013101;28;19981;-85
2023/06/03 00:22:42;;;;;;;;;;;11.40;99.90;;;;;;5034333;28;19925;-85
2023/06/03 00:25:08;;;;;;;;;;;11.40;99.90;;;;;;5033545;28;19925;-85
2023/06/03 00:27:34;;;;;;;;;;;11.30;99.90;;;;;;5020000;28;19976;-86
2023/06/03 00:30:04;;;;;;;;;;;11.30;99.90;;;;;;5036291;28;19928;-85
2023/06/03 00:32:29;;;;;;;;;;;11.30;99.90;;;;;;5016446;28;19924;-85
2023/06/03 00:34:55;;;;;;;;;;;11.20;99.90;;;;;;5034239;28;19925;-85
2023/06/03 00:37:21;;;;;;;;;;;11.20;99.90;;;;;;5035904;28;20293;-87
2023/06/03 00:39:46;;;;;;;;;;;11.10;99.90;;;;;;5019389;28;20342;-85
2023/06/03 00:42:12;;;;;;;;;;;11.10;99.90;;;;;;5035771;28;19924;-85
2023/06/03 00:44:37;;;;;;;;;;;11.10;99.90;;;;;;5019434;28;19925;-85
2023/06/03 00:47:03;;;;;;;;;;;11.00;99.90;;;;;;5036301;28;19924;-85
2023/06/03 00:49:29;;;;;;;;;;;11.00;99.90;;;;;;5012365;28;19929;-85
2023/06/03 00:51:55;;;;;;;;;;;11.00;99.90;;;;;;5019322;28;20366;-87
2023/06/03 00:54:21;;;;;;;;;;;11.00;99.90;;;;;;5035748;28;19986;-85
2023/06/03 00:56:47;;;;;;;;;;;11.00;99.90;;;;;;5032863;28;19941;-85
2023/06/03 00:59:14;;;;;;;;;;;10.90;99.90;;;;;;5014250;28;19924;-85
2023/06/03 01:01:42;;;;;;;;;;;10.90;99.90;;;;;;5019076;28;19929;-85
2023/06/03 01:04:09;;;;;;;;;;;10.80;99.90;;;;;;5017876;28;19932;-85
2023/06/03 01:06:45;;;;;;;;;;;10.80;99.90;;;;;;5035341;28;19925;-85
2023/06/03 01:09:22;;;;;;;;;;;10.80;99.90;;;;;;5029195;28;20387;-85
2023/06/03 01:11:57;;;;;;;;;;;10.70;99.90;;;;;;5021700;28;19932;-85
2023/06/03 01:14:25;;;;;;;;;;;10.70;99.90;;;;;;5018730;28;20345;-85
2023/06/03 01:16:52;;;;;;;;;;;10.60;99.90;;;;;;5034381;28;19925;-85
2023/06/03 01:19:38;;;;;;;;;;;10.60;99.90;;;;;;5014017;28;19941;-85
2023/06/03 01:22:06;;;;;;;;;;;10.60;99.90;;;;;;5031154;28;20282;-85
2023/06/03 01:24:32;;;;;;;;;;;10.50;99.90;;;;;;5028052;28;19924;-86
2023/06/03 01:26:58;;;;;;;;;;;10.50;99.90;;;;;;5034098;28;20236;-85
2023/06/03 01:29:24;;;;;;;;;;;10.50;99.90;;;;;;5025886;28;19925;-86
2023/06/03 01:31:50;;;;;;;;;;;10.50;99.90;;;;;;5019034;28;20408;-85
2023/06/03 01:34:16;;;;;;;;;;;10.50;99.90;;;;;;5025912;28;20029;-85
2023/06/03 01:36:42;;;;;;;;;;;10.50;99.90;;;;;;5017825;28;20078;-85
2023/06/03 01:39:08;;;;;;;;;;;10.50;99.90;;;;;;5034959;28;19964;-86
2023/06/03 01:41:34;;;;;;;;;;;10.50;99.90;;;;;;5030834;28;19931;-85
2023/06/03 01:43:59;;;;;;;;;;;10.40;99.90;;;;;;5018777;28;19924;-86
2023/06/03 01:46:25;;;;;;;;;;;10.40;99.90;;;;;;5035089;28;19951;-85
2023/06/03 01:48:51;;;;;;;;;;;10.40;99.90;;;;;;5029820;28;20020;-86
2023/06/03 01:51:16;;;;;;;;;;;10.40;99.90;;;;;;5002766;28;19980;-86
2023/06/03 01:53:42;;;;;;;;;;;10.40;99.90;;;;;;5031062;28;19940;-85
2023/06/03 01:56:08;;;;;;;;;;;10.40;99.90;;;;;;5017277;28;20247;-85
2023/06/03 01:58:33;;;;;;;;;;;10.30;99.90;;;;;;5030807;28;20707;-86
2023/06/03 02:00:59;;;;;;;;;;;10.30;99.90;;;;;;5033995;28;19925;-87
2023/06/03 02:03:25;;;;;;;;;;;10.20;99.90;;;;;;5017172;28;20023;-86
2023/06/03 02:05:50;;;;;;;;;;;10.20;99.90;;;;;;5032835;28;19929;-85
2023/06/03 02:08:16;;;;;;;;;;;10.20;99.90;;;;;;5037702;28;19928;-88
2023/06/03 02:10:42;;;;;;;;;;;10.10;99.90;;;;;;5033941;28;19925;-85
2023/06/03 02:13:07;;;;;;;;;;;10.10;99.90;;;;;;5016337;28;20016;-85
2023/06/03 02:15:33;;;;;;;;;;;10.00;99.90;;;;;;5031837;28;19983;-85
2023/06/03 02:17:59;;;;;;;;;;;10.00;99.90;;;;;;5013641;28;19937;-87
2023/06/03 02:20:25;;;;;;;;;;;9.90;99.90;;;;;;5030127;28;19932;-85
2023/06/03 02:22:51;;;;;;;;;;;9.90;99.90;;;;;;5034930;28;19928;-86
2023/06/03 02:25:17;;;;;;;;;;;9.80;99.90;;;;;;5017918;28;20014;-85
2023/06/03 02:27:43;;;;;;;;;;;9.80;99.90;;;;;;5035075;28;19999;-85
2023/06/03 02:30:10;;;;;;;;;;;9.80;99.90;;;;;;5021379;28;19951;-86
2023/06/03 02:32:39;;;;;;;;;;;9.80;99.90;;;;;;5037858;28;20294;-86
2023/06/03 02:35:05;;;;;;;;;;;11.50;99.90;;;;;;5037311;28;20289;-85
2023/06/03 02:37:30;;;;;;;;;;;9.70;99.90;;;;;;5018505;28;19933;-85
2023/06/03 02:39:56;;;;;;;;;;;9.70;99.90;;;;;;5029688;28;19936;-85
2023/06/03 02:42:22;;;;;;;;;;;9.60;99.90;;;;;;5038109;28;20022;-85
2023/06/03 02:44:47;;;;;;;;;;;9.70;99.90;;;;;;5038113;28;19924;-85
2023/06/03 02:47:13;;;;;;;;;;;9.60;99.90;;;;;;5018442;28;20401;-85
2023/06/03 02:49:41;;;;;;;;;;;9.60;99.90;;;;;;5032513;28;19950;-85
2023/06/03 02:52:06;;;;;;;;;;;9.60;99.90;;;;;;5021643;28;19929;-85
2023/06/03 02:54:32;;;;;;;;;;;9.60;99.90;;;;;;5030896;28;19926;-85
2023/06/03 02:56:58;;;;;;;;;;;9.50;99.90;;;;;;5029619;28;19964;-85
2023/06/03 02:59:23;;;;;;;;;;;9.50;99.90;;;;;;5029581;28;20294;-85
2023/06/03 03:01:49;;;;;;;;;;;9.40;99.90;;;;;;5054306;28;19932;-86
2023/06/03 03:04:14;;;;;;;;;;;9.40;99.90;;;;;;5036208;28;20490;-85
2023/06/03 03:06:40;;;;;;;;;;;9.40;99.90;;;;;;5037835;28;19960;-85
2023/06/03 03:09:06;;;;;;;;;;;9.40;99.90;;;;;;5037733;28;19925;-85
2023/06/03 03:11:31;;;;;;;;;;;9.40;99.90;;;;;;5008764;28;19925;-85
2023/06/03 03:13:58;;;;;;;;;;;9.40;99.90;;;;;;5037063;28;20317;-85
2023/06/03 03:16:24;;;;;;;;;;;9.40;99.90;;;;;;5037407;28;19925;-85
2023/06/03 03:18:49;;;;;;;;;;;9.40;99.90;;;;;;5019743;28;19925;-85
2023/06/03 03:21:15;;;;;;;;;;;9.30;99.90;;;;;;5021272;28;20293;-85
2023/06/03 03:23:41;;;;;;;;;;;9.30;99.90;;;;;;5037225;28;19925;-85
2023/06/03 03:26:11;;;;;;;;;;;9.30;99.90;;;;;;5031046;28;19928;-86
2023/06/03 03:28:37;;;;;;;;;;;9.30;99.90;;;;;;5037263;28;19933;-85
2023/06/03 03:31:04;;;;;;;;;;;9.30;99.90;;;;;;5037222;28;19924;-85
2023/06/03 03:33:30;;;;;;;;;;;9.40;99.90;;;;;;5018125;28;19925;-85
2023/06/03 03:35:58;;;;;;;;;;;9.30;99.90;;;;;;5035821;28;19924;-85
2023/06/03 03:38:24;;;;;;;;;;;9.30;99.90;;;;;;5019358;28;19947;-86
2023/06/03 03:40:49;;;;;;;;;;;9.30;99.90;;;;;;5030760;28;19924;-85
2023/06/03 03:43:16;;;;;;;;;;;9.30;99.90;;;;;;5017494;28;19929;-85
2023/06/03 03:45:42;;;;;;;;;;;9.30;99.90;;;;;;5029358;28;19931;-85
2023/06/03 03:48:15;;;;;;;;;;;9.30;99.90;;;;;;5018504;28;19925;-85
2023/06/03 03:50:50;;;;;;;;;;;9.30;99.90;;;;;;5030612;28;19925;-85
2023/06/03 03:53:16;;;;;;;;;;;9.40;99.90;;;;;;5037361;28;19970;-86
2023/06/03 03:55:42;;;;;;;;;;;9.60;99.90;;;;;;5020266;28;20024;-85
2023/06/03 03:58:27;;;;;;;;;;;9.90;99.90;;;;;;5036911;28;19924;-85
2023/06/03 04:00:54;;;;;;;;;;;9.90;99.90;;;;;;5036851;28;20294;-86
2023/06/03 04:03:23;;;;;;;;;;;9.80;99.90;;;;;;5036161;28;19929;-89
2023/06/03 04:05:49;;;;;;;;;;;9.80;99.90;;;;;;5034707;28;19995;-85
2023/06/03 04:08:33;;;;;;;;;;;9.70;99.90;;;;;;5036066;28;20470;-85
2023/06/03 04:10:59;;;;;;;;;;;9.80;99.90;;;;;;5036889;28;19932;-85
2023/06/03 04:13:25;;;;;;;;;;;9.70;99.90;;;;;;5020179;28;19925;-86
2023/06/03 04:15:51;;;;;;;;;;;9.70;99.90;;;;;;5020020;28;19983;-86
2023/06/03 04:18:18;;;;;;;;;;;9.70;99.90;;;;;;5022950;28;19933;-89
2023/06/03 04:20:44;;;;;;;;;;;9.60;99.90;;;;;;5035957;28;19970;-85
2023/06/03 04:23:15;;;;;;;;;;;9.50;99.90;;;;;;5036378;28;19925;-85
2023/06/03 04:25:41;;;;;;;;;;;9.50;99.90;;;;;;5036263;28;20367;-85
2023/06/03 04:28:07;;;;;;;;;;;9.50;99.90;;;;;;5035949;28;19954;-85
2023/06/03 04:30:34;;;;;;;;;;;9.50;99.90;;;;;;5008376;28;19974;-85
2023/06/03 04:32:59;;;;;;;;;;;9.50;99.90;;;;;;5035718;28;19940;-86
2023/06/03 04:35:25;;;;;;;;;;;9.50;99.90;;;;;;5023771;28;19929;-85
2023/06/03 04:37:50;;;;;;;;;;;9.60;99.90;;;;;;5027106;28;19964;-86
2023/06/03 04:40:16;;;;;;;;;;;9.70;99.90;;;;;;5035901;28;19982;-85
2023/06/03 04:42:41;;;;;;;;;;;9.70;99.90;;;;;;5035970;28;20275;-85
2023/06/03 04:45:08;;;;;;;;;;;9.80;99.90;;;;;;5016161;28;19932;-85
2023/06/03 04:47:34;;;;;;;;;;;9.80;99.90;;;;;;5032062;28;19925;-85
2023/06/03 04:50:02;;;;;;;;;;;9.90;99.90;;;;;;5016823;28;19932;-85
2023/06/03 04:52:28;;;;;;;;;;;10.00;99.90;;;;;;5014054;28;19935;-85
2023/06/03 04:54:54;;;;;;;;;;;10.10;99.90;;;;;;5021802;28;20367;-85
2023/06/03 04:57:20;;;;;;;;;;;10.10;99.90;;;;;;5017571;28;19958;-85
2023/06/03 04:59:45;;;;;;;;;;;10.10;99.90;;;;;;5035660;28;19951;-85
2023/06/03 05:02:13;;;;;;;;;;;10.20;99.90;;;;;;5030472;28;20321;-85
2023/06/03 05:04:40;;;;;;;;;;;10.30;99.90;;;;;;5034176;28;19925;-85
2023/06/03 05:07:06;;;;;;;;;;;10.40;99.90;;;;;;5019525;28;20207;-85
2023/06/03 05:09:32;;;;;;;;;;;10.50;99.90;;;;;;5009830;28;20002;-85
2023/06/03 05:11:58;;;;;;;;;;;10.70;99.90;;;;;;5031642;28;19932;-85
2023/06/03 05:14:23;;;;;;;;;;;10.80;99.90;;;;;;5035592;28;19932;-85
2023/06/03 05:16:49;;;;;;;;;;;10.90;99.90;;;;;;5018880;28;19950;-85
2023/06/03 05:19:14;;;;;;;;;;;11.00;99.90;;;;;;5036431;28;19925;-85
2023/06/03 05:21:40;;;;;;;;;;;11.00;99.90;;;;;;5016684;28;19925;-85
2023/06/03 05:24:06;;;;;;;;;;;11.10;99.90;;;;;;5018812;28;20016;-85
2023/06/03 05:26:31;;;;;;;;;;;11.30;99.90;;;;;;5019413;28;19940;-88
2023/06/03 05:29:00;;;;;;;;;;;11.30;99.90;;;;;;5035443;28;19932;-87
2023/06/03 05:31:26;;;;;;;;;;;11.30;99.90;;;;;;5035331;28;19975;-87
2023/06/03 05:33:51;;;;;;;;;;;11.30;99.90;;;;;;5017977;28;19948;-89
2023/06/03 05:36:17;;;;;;;;;;;11.30;99.90;;;;;;5034587;28;19924;-88
2023/06/03 05:38:43;;;;;;;;;;;11.40;99.90;;;;;;5018812;28;19975;-84
2023/06/03 05:41:08;;;;;;;;;;;11.40;99.90;;;;;;5051817;28;19925;-85
2023/06/03 05:43:34;;;;;;;;;;;11.50;99.90;;;;;;5018170;28;19925;-86
2023/06/03 05:45:59;;;;;;;;;;;11.50;99.90;;;;;;5018500;28;19943;-86
2023/06/03 05:48:27;;;;;;;;;;;11.50;99.90;;;;;;5030398;28;20305;-88
2023/06/03 05:50:54;;;;;;;;;;;11.50;99.90;;;;;;5018559;28;20287;-84
2023/06/03 05:53:20;;;;;;;;;;;11.50;99.90;;;;;;5035045;28;20011;-85
2023/06/03 05:55:47;;;;;;;;;;;11.50;99.90;;;;;;5034711;28;19931;-85
2023/06/03 05:58:12;;;;;;;;;;;11.50;99.90;;;;;;5035170;28;19940;-85
2023/06/03 06:00:38;;;;;;;;;;;11.50;99.90;;;;;;5018470;28;19925;-85
2023/06/03 06:03:04;;;;;;;;;;;11.50;99.90;;;;;;5035469;28;19978;-87
2023/06/03 06:05:29;;;;;;;;;;;11.60;99.90;;;;;;5022074;28;20313;-83
2023/06/03 06:07:56;;;;;;;;;;;11.70;99.90;;;;;;5022308;28;20351;-85
2023/06/03 06:10:21;;;;;;;;;;;11.90;99.90;;;;;;5012761;28;19925;-83
2023/06/03 06:12:47;;;;;;;;;;;11.90;99.90;;;;;;5022186;28;19947;-83
2023/06/03 06:15:12;;;;;;;;;;;12.00;99.90;;;;;;5031450;28;20368;-83
2023/06/03 06:17:38;;;;;;;;;;;12.10;99.90;;;;;;5038147;28;19924;-83
2023/06/03 06:20:07;;;;;;;;;;;12.20;99.90;;;;;;5037221;28;19975;-84
2023/06/03 06:22:32;;;;;;;;;;;12.30;99.90;;;;;;5038518;28;19932;-84
2023/06/03 06:24:58;;;;;;;;;;;12.40;99.90;;;;;;5022010;28;19924;-83
2023/06/03 06:27:24;;;;;;;;;;;12.50;99.90;;;;;;5038426;28;19925;-83
2023/06/03 06:29:51;;;;;;;;;;;12.60;99.90;;;;;;5021798;28;19925;-83
2023/06/03 06:32:21;;;;;;;;;;;12.70;99.90;;;;;;5028363;28;19928;-84
2023/06/03 06:34:47;;;;;;;;;;;12.70;99.90;;;;;;5032994;28;19998;-84
2023/06/03 06:37:13;;;;;;;;;;;12.80;99.90;;;;;;5029211;28;19925;-84
2023/06/03 06:39:42;;;;;;;;;;;12.90;99.90;;;;;;5033232;28;19983;-85
2023/06/03 06:42:23;;;;;;;;;;;13.00;99.90;;;;;;5032716;28;19925;-84
2023/06/03 06:44:49;;;;;;;;;;;13.00;99.90;;;;;;5028503;28;20339;-84
2023/06/03 06:47:21;;;;;;;;;;;13.10;99.90;;;;;;5032374;28;19932;-84
2023/06/03 06:49:46;;;;;;;;;;;13.20;99.10;;;;;;5010446;28;19936;-83
2023/06/03 06:52:13;;;;;;;;;;;13.30;98.90;;;;;;5021753;28;19929;-84
2023/06/03 06:54:39;;;;;;;;;;;13.30;98.10;;;;;;5021414;28;19929;-85
2023/06/03 06:57:05;;;;;;;;;;;13.40;97.10;;;;;;5021369;28;19932;-85
2023/06/03 06:59:31;;;;;;;;;;;13.50;98.10;;;;;;5037423;28;19928;-84
2023/06/03 07:01:57;;;;;;;;;;;13.60;97.80;;;;;;5035414;28;19928;-85
2023/06/03 07:04:22;;;;;;;;;;;13.70;97.60;;;;;;5016533;28;20016;-84
2023/06/03 07:06:48;;;;;;;;;;;13.80;97.30;;;;;;5035406;28;19932;-83
2023/06/03 07:09:14;;;;;;;;;;;13.90;96.30;;;;;;5033450;28;19925;-84
2023/06/03 07:11:43;;;;;;;;;;;14.00;97.10;;;;;;5034426;28;19935;-84
2023/06/03 07:14:08;;;;;;;;;;;14.10;97.20;;;;;;5036238;28;20042;-83
2023/06/03 07:16:34;;;;;;;;;;;14.30;95.90;;;;;;5037249;28;19928;-83
2023/06/03 07:19:00;;;;;;;;;;;14.40;94.40;;;;;;5035998;28;19925;-83
2023/06/03 07:21:26;;;;;;;;;;;14.50;95.40;;;;;;5020658;28;20370;-83
2023/06/03 07:23:51;;;;;;;;;;;14.60;94.00;;;;;;5013662;28;19929;-84
2023/06/03 07:26:18;;;;;;;;;;;14.80;93.60;;;;;;5011913;28;19925;-83
2023/06/03 07:28:46;;;;;;;;;;;14.90;93.90;;;;;;5028287;28;20271;-83
2023/06/03 07:31:11;;;;;;;;;;;15.10;92.00;;;;;;5034221;28;19933;-83
2023/06/03 07:33:40;;;;;;;;;;;15.20;90.10;;;;;;5030463;28;20594;-83
2023/06/03 07:36:06;;;;;;;;;;;15.30;90.50;;;;;;5036654;28;20398;-83
2023/06/03 07:38:37;;;;;;;;;;;15.50;92.40;;;;;;5017027;28;19979;-83
2023/06/03 07:41:06;;;;;;;;;;;15.70;90.30;;;;;;5034933;28;19931;-83
2023/06/03 07:43:36;;;;;;;;;;;15.80;86.20;;;;;;5020078;28;20332;-83
2023/06/03 07:46:05;;;;;;;;;;;15.90;84.20;;;;;;5019679;28;19925;-83
2023/06/03 07:48:32;;;;;;;;;;;16.00;84.00;;;;;;5035447;28;20497;-83
2023/06/03 07:50:58;;;;;;;;;;;16.10;86.70;;;;;;5035876;28;19974;-83
2023/06/03 07:53:24;;;;;;;;;;;16.10;85.60;;;;;;5020033;28;20003;-84
2023/06/03 07:55:50;;;;;;;;;;;16.00;82.20;;;;;;5036831;28;20382;-83
2023/06/03 07:58:16;;;;;;;;;;;15.90;80.40;;;;;;5036400;28;19925;-85
2023/06/03 08:00:46;;;;;;;;;;;15.80;83.00;;;;;;5036808;28;20061;-83
2023/06/03 08:03:14;;;;;;;;;;;15.80;83.60;;;;;;5036249;28;20011;-83
2023/06/03 08:05:41;;;;;;;;;;;15.70;82.30;;;;;;5052783;28;19925;-83
2023/06/03 08:08:09;;;;;;;;;;;15.70;82.90;;;;;;5031677;28;19929;-83
2023/06/03 08:10:35;;;;;;;;;;;15.60;84.90;;;;;;5038591;28;19931;-83
2023/06/03 08:13:01;;;;;;;;;;;15.60;85.60;;;;;;5004466;28;19925;-83
2023/06/03 08:15:28;;;;;;;;;;;15.60;80.80;;;;;;5036827;28;20285;-83
2023/06/03 08:17:53;;;;;;;;;;;15.60;84.20;;;;;;5036004;28;19925;-83
2023/06/03 08:20:26;;;;;;;;;;;15.60;82.20;;;;;;5034954;28;20019;-83
2023/06/03 08:22:51;;;;;;;;;;;15.60;79.80;;;;;;5028645;28;20281;-83
2023/06/03 08:25:17;;;;;;;;;;;15.70;80.90;;;;;;5003650;28;19932;-83
2023/06/03 08:27:43;;;;;;;;;;;15.60;80.00;;;;;;5025801;28;19925;-83
2023/06/03 08:30:10;;;;;;;;;;;15.70;83.10;;;;;;5028785;28;19925;-83
2023/06/03 08:32:36;;;;;;;;;;;15.80;83.90;;;;;;5019990;28;19924;-83
2023/06/03 08:35:02;;;;;;;;;;;15.80;83.70;;;;;;5035279;28;20275;-83
2023/06/03 08:37:28;;;;;;;;;;;16.00;80.20;;;;;;5018915;28;19934;-84
2023/06/03 08:39:54;;;;;;;;;;;16.00;81.20;;;;;;5003014;28;19926;-83
2023/06/03 08:42:23;;;;;;;;;;;16.10;80.00;;;;;;5036246;28;19931;-83
2023/06/03 08:45:12;;;;;;;;;;;16.20;80.20;;;;;;5025306;28;19979;-84
2023/06/03 08:47:57;;;;;;;;;;;16.30;81.30;;;;;;5030281;28;19931;-84
2023/06/03 08:50:26;;;;;;;;;;;16.40;78.50;;;;;;5031206;28;19924;-83
2023/06/03 08:52:52;;;;;;;;;;;16.60;78.80;;;;;;5031349;28;19931;-83
2023/06/03 08:55:18;;;;;;;;;;;16.60;76.20;;;;;;5018614;28;19925;-84
2023/06/03 08:58:03;;;;;;;;;;;16.80;76.30;;;;;;5015990;28;19925;-84
2023/06/03 09:00:30;;;;;;;;;;;16.80;74.00;;;;;;5028701;28;20414;-83
2023/06/03 09:02:56;;;;;;;;;;;16.90;73.00;;;;;;5025136;28;19925;-85
2023/06/03 09:05:22;;;;;;;;;;;16.90;72.50;;;;;;5016473;28;20039;-84
2023/06/03 09:07:48;;;;;;;;;;;17.00;72.90;;;;;;5035287;28;19931;-84
2023/06/03 09:10:17;;;;;;;;;;;17.00;73.20;;;;;;5021731;28;19932;-83
2023/06/03 09:12:46;;;;;;;;;;;17.10;70.50;;;;;;5031654;28;19925;-83
2023/06/03 09:15:15;;;;;;;;;;;17.20;69.90;;;;;;5050424;28;19964;-83
2023/06/03 09:17:41;;;;;;;;;;;17.20;71.50;;;;;;5023405;28;19925;-84
2023/06/03 09:20:07;;;;;;;;;;;17.30;68.50;;;;;;5034365;28;20361;-84
2023/06/03 09:22:34;;;;;;;;;;;17.30;67.90;;;;;;5035506;28;19925;-83
2023/06/03 09:25:00;;;;;;;;;;;17.30;69.70;;;;;;5034996;28;19924;-85
2023/06/03 09:27:25;;;;;;;;;;;17.50;70.80;;;;;;5035479;28;19932;-84
2023/06/03 09:29:53;;;;;;;;;;;17.60;67.60;;;;;;5035111;28;19956;-84
2023/06/03 09:32:20;;;;;;;;;;;17.60;67.50;;;;;;5035498;28;19940;-84
2023/06/03 09:34:46;;;;;;;;;;;17.70;68.50;;;;;;5032684;28;19924;-84
2023/06/03 09:37:12;;;;;;;;;;;17.80;68.20;;;;;;5034859;28;20024;-85
2023/06/03 09:39:38;;;;;;;;;;;17.80;66.30;;;;;;5019227;28;20335;-84
2023/06/03 09:42:03;;;;;;;;;;;17.90;65.40;;;;;;5030755;28;19944;-84
2023/06/03 09:44:55;;;;;;;;;;;17.80;65.50;;;;;;5025706;28;20004;-84
2023/06/03 09:47:21;;;;;;;;;;;17.90;66.00;;;;;;5022716;28;19925;-84
2023/06/03 09:50:06;;;;;;;;;;;17.90;66.20;;;;;;5019656;28;19929;-84
2023/06/03 09:52:32;;;;;;;;;;;18.00;66.10;;;;;;5023673;28;19963;-90
2023/06/03 09:55:05;;;;;;;;;;;18.10;65.60;;;;;;5015605;28;19945;-87
2023/06/03 09:57:31;;;;;;;;;;;18.20;67.60;;;;;;5024472;28;19929;-85
2023/06/03 10:00:04;;;;;;;;;;;18.30;66.70;;;;;;5016835;28;19928;-85
2023/06/03 10:02:29;;;;;;;;;;;18.40;64.40;;;;;;5034885;28;19971;-85
2023/06/03 10:04:55;;;;;;;;;;;18.40;65.30;;;;;;5022862;28;19929;-86
2023/06/03 10:07:21;;;;;;;;;;;18.50;64.90;;;;;;5022537;28;19925;-86
2023/06/03 10:09:47;;;;;;;;;;;18.50;65.30;;;;;;5018414;28;19980;-85
2023/06/03 10:12:13;;;;;;;;;;;18.50;64.20;;;;;;5038358;28;19925;-82
2023/06/03 10:14:46;;;;;;;;;;;18.50;64.50;;;;;;5028072;28;19929;-86
2023/06/03 10:17:12;;;;;;;;;;;18.40;63.10;;;;;;5021165;28;19925;-86
2023/06/03 10:19:42;;;;;;;;;;;18.40;65.00;;;;;;5020738;28;20342;-85
2023/06/03 10:22:10;;;;;;;;;;;18.40;64.70;;;;;;5038188;28;19968;-86
2023/06/03 10:24:40;;;;;;;;;;;18.60;65.40;;;;;;5038049;28;19990;-85
2023/06/03 10:27:06;;;;;;;;;;;18.70;65.20;;;;;;5037099;28;19928;-86
2023/06/03 10:29:32;;;;;;;;;;;18.70;65.20;;;;;;5049726;28;19988;-84
2023/06/03 10:32:00;;;;;;;;;;;18.90;64.50;;;;;;5031179;28;20370;-84
2023/06/03 10:34:29;;;;;;;;;;;19.00;63.50;;;;;;5036449;28;20062;-84
2023/06/03 10:36:57;;;;;;;;;;;19.10;63.90;;;;;;5036024;28;19929;-84
2023/06/03 10:39:26;;;;;;;;;;;19.00;64.90;;;;;;5028476;28;20287;-83
2023/06/03 10:41:53;;;;;;;;;;;19.10;62.70;;;;;;5025283;28;19925;-84
2023/06/03 10:44:19;;;;;;;;;;;19.10;64.00;;;;;;5021539;28;19925;-84
2023/06/03 10:46:46;;;;;;;;;;;19.20;62.70;;;;;;5036317;28;20370;-83
2023/06/03 10:49:12;;;;;;;;;;;19.10;62.30;;;;;;5026763;28;20290;-83
2023/06/03 10:52:00;;;;;;;;;;;19.10;63.70;;;;;;5029423;28;19929;-83
2023/06/03 10:54:33;;;;;;;;;;;18.90;63.30;;;;;;5021505;28;20282;-83
2023/06/03 10:57:05;;;;;;;;;;;19.10;62.20;;;;;;5037535;28;19959;-84
2023/06/03 10:59:38;;;;;;;;;;;19.20;62.20;;;;;;5037985;28;19925;-85
2023/06/03 11:02:04;;;;;;;;;;;19.20;62.90;;;;;;5021449;28;19931;-85
2023/06/03 11:04:31;;;;;;;;;;;19.30;62.60;;;;;;5010770;28;20379;-84
2023/06/03 11:06:57;;;;;;;;;;;19.50;63.20;;;;;;5024908;28;19929;-84
2023/06/03 11:09:29;;;;;;;;;;;19.50;62.00;;;;;;5035672;28;20421;-84
2023/06/03 11:12:03;;;;;;;;;;;19.70;62.40;;;;;;5036764;28;19929;-84
2023/06/03 11:14:32;;;;;;;;;;;19.70;62.80;;;;;;5030854;28;19979;-84
2023/06/03 11:16:58;;;;;;;;;;;19.80;62.40;;;;;;5034316;28;20370;-85
2023/06/03 11:19:28;;;;;;;;;;;19.80;59.90;;;;;;5035888;28;19951;-85
2023/06/03 11:21:54;;;;;;;;;;;19.80;60.50;;;;;;5030058;28;19970;-85
2023/06/03 11:24:38;;;;;;;;;;;19.80;61.80;;;;;;5020879;28;19925;-85
2023/06/03 11:27:10;;;;;;;;;;;19.80;60.70;;;;;;5036279;28;20338;-85
2023/06/03 11:29:48;;;;;;;;;;;19.90;61.90;;;;;;5030102;28;19933;-84
2023/06/03 11:32:15;;;;;;;;;;;20.00;61.40;;;;;;5020124;28;19983;-83
2023/06/03 11:34:40;;;;;;;;;;;20.00;60.20;;;;;;5032690;28;19936;-85
2023/06/03 11:37:06;;;;;;;;;;;20.00;61.80;;;;;;5018376;28;19955;-84
2023/06/03 11:39:50;;;;;;;;;;;20.00;61.50;;;;;;5026508;28;19987;-84
2023/06/03 11:42:16;;;;;;;;;;;20.10;60.90;;;;;;5035724;28;19931;-83
2023/06/03 11:44:42;;;;;;;;;;;20.00;60.70;;;;;;5036829;28;20302;-84
2023/06/03 11:47:07;;;;;;;;;;;20.20;61.80;;;;;;5037207;28;19924;-84
2023/06/03 11:49:34;;;;;;;;;;;20.20;61.80;;;;;;5035325;28;20506;-84
2023/06/03 11:52:00;;;;;;;;;;;20.40;61.90;;;;;;5037083;28;19924;-85
2023/06/03 11:54:26;;;;;;;;;;;20.40;61.70;;;;;;5036948;28;20409;-84
2023/06/03 11:56:54;;;;;;;;;;;20.40;60.90;;;;;;5025101;28;20041;-83
2023/06/03 11:59:21;;;;;;;;;;;20.40;59.20;;;;;;5036353;28;19925;-84
2023/06/03 12:01:56;;;;;;;;;;;20.40;59.10;;;;;;5025046;28;19936;-84
2023/06/03 12:04:22;;;;;;;;;;;20.40;58.30;;;;;;5031146;28;19924;-83
2023/06/03 12:06:48;;;;;;;;;;;20.50;58.90;;;;;;5020347;28;20003;-83
2023/06/03 12:09:18;;;;;;;;;;;20.60;58.40;;;;;;5017982;28;19925;-84
2023/06/03 12:11:44;;;;;;;;;;;20.70;59.10;;;;;;5035695;28;20397;-84
2023/06/03 12:14:10;;;;;;;;;;;20.80;58.30;;;;;;5031749;28;20015;-83
2023/06/03 12:16:36;;;;;;;;;;;20.80;56.20;;;;;;5051500;28;20023;-84
2023/06/03 12:19:06;;;;;;;;;;;20.70;57.10;;;;;;5034086;28;20400;-84
2023/06/03 12:21:32;;;;;;;;;;;20.70;57.50;;;;;;5048748;28;19924;-84
2023/06/03 12:23:58;;;;;;;;;;;20.80;57.00;;;;;;5029590;28;19948;-83
2023/06/03 12:26:24;;;;;;;;;;;20.80;56.80;;;;;;5015820;28;20398;-83
2023/06/03 12:28:50;;;;;;;;;;;20.60;56.20;;;;;;5033959;28;20070;-83
2023/06/03 12:31:16;;;;;;;;;;;20.50;57.10;;;;;;5036319;28;20044;-83
2023/06/03 12:33:42;;;;;;;;;;;20.70;56.50;;;;;;5035069;28;20006;-83
2023/06/03 12:36:09;;;;;;;;;;;20.60;56.70;;;;;;5020739;28;20378;-85
2023/06/03 12:38:53;;;;;;;;;;;20.70;57.60;;;;;;5030524;28;20011;-83
2023/06/03 12:41:19;;;;;;;;;;;20.70;56.30;;;;;;5035713;28;19929;-83
2023/06/03 12:43:45;;;;;;;;;;;20.90;56.20;;;;;;5035965;28;19925;-83
2023/06/03 12:46:16;;;;;;;;;;;20.80;57.10;;;;;;5019013;28;19925;-83
2023/06/03 12:48:42;;;;;;;;;;;20.80;57.20;;;;;;5028538;28;20008;-83
2023/06/03 12:51:40;;;;;;;;;;;20.80;59.00;;;;;;5038732;28;19979;-83
2023/06/03 12:54:05;;;;;;;;;;;20.80;57.60;;;;;;4993239;28;19925;-84
2023/06/03 12:56:31;;;;;;;;;;;20.80;58.00;;;;;;4999528;28;19932;-85
2023/06/03 12:58:57;;;;;;;;;;;20.90;59.10;;;;;;5013399;28;20389;-84
2023/06/03 13:01:23;;;;;;;;;;;20.90;59.00;;;;;;5014400;28;19929;-85
2023/06/03 13:03:54;;;;;;;;;;;20.90;59.30;;;;;;5033759;28;19925;-85
2023/06/03 13:06:22;;;;;;;;;;;21.10;59.70;;;;;;5030429;28;20212;-86
2023/06/03 13:08:51;;;;;;;;;;;21.20;60.20;;;;;;5018551;28;19924;-85
2023/06/03 13:11:16;;;;;;;;;;;21.30;58.90;;;;;;5034643;28;19929;-87
2023/06/03 13:13:42;;;;;;;;;;;21.30;59.50;;;;;;5027265;28;20378;-84
2023/06/03 13:16:07;;;;;;;;;;;21.30;58.10;;;;;;5018835;28;19931;-86
2023/06/03 13:18:33;;;;;;;;;;;21.20;59.90;;;;;;5014298;28;19925;-84
2023/06/03 13:20:59;;;;;;;;;;;21.40;58.80;;;;;;5033874;28;19924;-85
2023/06/03 13:23:25;;;;;;;;;;;21.40;59.10;;;;;;5035243;28;20011;-85
2023/06/03 13:25:51;;;;;;;;;;;21.30;59.20;;;;;;5035585;28;20338;-86
2023/06/03 13:28:16;;;;;;;;;;;21.20;60.60;;;;;;5034786;28;19943;-88
2023/06/03 13:30:42;;;;;;;;;;;21.20;58.30;;;;;;5018369;28;19975;-85
2023/06/03 13:33:08;;;;;;;;;;;21.20;59.00;;;;;;5027624;28;19929;-85
2023/06/03 13:35:33;;;;;;;;;;;21.20;59.30;;;;;;5024771;28;19925;-85
2023/06/03 13:37:59;;;;;;;;;;;21.20;59.70;;;;;;5004576;28;19924;-86
2023/06/03 13:40:25;;;;;;;;;;;21.10;60.00;;;;;;5035345;28;20019;-83
2023/06/03 13:42:50;;;;;;;;;;;21.20;59.80;;;;;;5002004;28;19936;-85
2023/06/03 13:45:16;;;;;;;;;;;21.20;59.00;;;;;;5015521;28;19987;-84
2023/06/03 13:47:41;;;;;;;;;;;21.10;59.00;;;;;;5000995;28;19926;-84
2023/06/03 13:50:07;;;;;;;;;;;21.20;60.30;;;;;;5029720;28;19924;-85
2023/06/03 13:52:33;;;;;;;;;;;21.30;59.90;;;;;;5013013;28;19979;-86
2023/06/03 13:54:59;;;;;;;;;;;21.30;60.70;;;;;;5026584;28;20374;-86
2023/06/03 13:57:24;;;;;;;;;;;21.40;60.70;;;;;;5032287;28;20345;-86
2023/06/03 13:59:52;;;;;;;;;;;21.50;60.40;;;;;;5021024;28;19994;-85
2023/06/03 14:02:18;;;;;;;;;;;21.50;61.90;;;;;;5017952;28;19987;-84
2023/06/03 14:04:44;;;;;;;;;;;19.80;60.70;;;;;;5022416;28;20421;-84
2023/06/03 14:07:09;;;;;;;;;;;21.50;58.90;;;;;;5034991;28;19932;-85
2023/06/03 14:09:35;;;;;;;;;;;21.40;61.00;;;;;;5001755;28;19971;-85
2023/06/03 14:12:02;;;;;;;;;;;21.30;59.70;;;;;;5035023;28;19983;-86
2023/06/03 14:14:28;;;;;;;;;;;21.40;61.40;;;;;;5017946;28;20267;-85
2023/06/03 14:16:53;;;;;;;;;;;21.40;61.20;;;;;;5033401;28;19932;-86
2023/06/03 14:19:19;;;;;;;;;;;21.50;60.00;;;;;;5014770;28;20004;-84